sensor_id;sensor_type;location;lat;lon;timestamp;P1;durP1;ratioP1;P2;durP2;ratioP2
41343;SDS011;27089;50.022;7.604;2024-03-17T00:00:21;5.67;;;3.90;;
41343;SDS011;27089;50.022;7.604;2024-03-17T00:02:48;5.63;;;4.20;;
41343;SDS011;27089;50.022;7.604;2024-03-17T00:05:14;6.13;;;4.47;;
41343;SDS011;27089;50.022;7.604;2024-03-17T00:07:45;7.13;;;4.93;;
41343;SDS011;27089;50.022;7.604;2024-03-17T00:10:11;8.90;;;4.60;;
41343;SDS011;27089;50.022;7.604;2024-03-17T00:12:38;8.20;;;3.97;;
41343;SDS011;27089;50.022;7.604;2024-03-17T00:15:04;6.23;;;4.40;;
41343;SDS011;27089;50.022;7.604;2024-03-17T00:17:32;7.53;;;3.87;;
41343;SDS011;27089;50.022;7.604;2024-03-17T00:19:59;6.73;;;3.90;;
41343;SDS011;27089;50.022;7.604;2024-03-17T00:22:33;6.57;;;4.40;;
41343;SDS011;27089;50.022;7.604;2024-03-17T00:25:04;6.20;;;4.53;;
41343;SDS011;27089;50.022;7.604;2024-03-17T00:27:31;6.13;;;4.00;;
41343;SDS011;27089;50.022;7.604;2024-03-17T00:29:58;9.00;;;3.80;;
41343;SDS011;27089;50.022;7.604;2024-03-17T00:32:25;5.33;;;3.40;;
41343;SDS011;27089;50.022;7.604;2024-03-17T00:34:51;5.23;;;4.00;;
41343;SDS011;27089;50.022;7.604;2024-03-17T00:37:18;6.23;;;4.37;;
41343;SDS011;27089;50.022;7.604;2024-03-17T00:39:44;5.27;;;3.73;;
41343;SDS011;27089;50.022;7.604;2024-03-17T00:42:12;7.07;;;4.50;;
41343;SDS011;27089;50.022;7.604;2024-03-17T00:44:39;4.73;;;3.70;;
41343;SDS011;27089;50.022;7.604;2024-03-17T00:47:06;6.27;;;4.20;;
41343;SDS011;27089;50.022;7.604;2024-03-17T00:49:33;5.70;;;3.97;;
41343;SDS011;27089;50.022;7.604;2024-03-17T00:52:00;7.57;;;4.17;;
41343;SDS011;27089;50.022;7.604;2024-03-17T00:54:26;7.57;;;4.00;;
41343;SDS011;27089;50.022;7.604;2024-03-17T00:56:53;8.83;;;4.83;;
41343;SDS011;27089;50.022;7.604;2024-03-17T00:59:21;7.10;;;4.40;;
41343;SDS011;27089;50.022;7.604;2024-03-17T01:01:48;6.63;;;3.90;;
41343;SDS011;27089;50.022;7.604;2024-03-17T01:04:14;5.43;;;4.03;;
41343;SDS011;27089;50.022;7.604;2024-03-17T01:06:41;6.43;;;4.10;;
41343;SDS011;27089;50.022;7.604;2024-03-17T01:09:07;7.23;;;4.27;;
41343;SDS011;27089;50.022;7.604;2024-03-17T01:11:34;6.47;;;3.50;;
41343;SDS011;27089;50.022;7.604;2024-03-17T01:14:00;7.00;;;3.83;;
41343;SDS011;27089;50.022;7.604;2024-03-17T01:16:29;6.93;;;4.20;;
41343;SDS011;27089;50.022;7.604;2024-03-17T01:18:55;5.30;;;4.10;;
41343;SDS011;27089;50.022;7.604;2024-03-17T01:21:22;6.67;;;5.20;;
41343;SDS011;27089;50.022;7.604;2024-03-17T01:23:48;4.80;;;3.53;;
41343;SDS011;27089;50.022;7.604;2024-03-17T01:26:15;4.23;;;3.67;;
41343;SDS011;27089;50.022;7.604;2024-03-17T01:28:41;3.77;;;3.27;;
41343;SDS011;27089;50.022;7.604;2024-03-17T01:31:08;5.43;;;3.67;;
41343;SDS011;27089;50.022;7.604;2024-03-17T01:33:36;4.57;;;3.70;;
41343;SDS011;27089;50.022;7.604;2024-03-17T01:36:03;8.97;;;3.53;;
41343;SDS011;27089;50.022;7.604;2024-03-17T01:38:29;7.80;;;3.50;;
41343;SDS011;27089;50.022;7.604;2024-03-17T01:40:57;4.97;;;3.43;;
41343;SDS011;27089;50.022;7.604;2024-03-17T01:43:23;5.00;;;3.43;;
41343;SDS011;27089;50.022;7.604;2024-03-17T01:45:50;5.90;;;3.20;;
41343;SDS011;27089;50.022;7.604;2024-03-17T01:48:17;6.20;;;3.73;;
41343;SDS011;27089;50.022;7.604;2024-03-17T01:50:46;5.17;;;3.37;;
41343;SDS011;27089;50.022;7.604;2024-03-17T01:53:14;5.93;;;4.10;;
41343;SDS011;27089;50.022;7.604;2024-03-17T01:55:42;5.13;;;3.03;;
41343;SDS011;27089;50.022;7.604;2024-03-17T01:58:09;6.40;;;3.57;;
41343;SDS011;27089;50.022;7.604;2024-03-17T02:00:36;6.30;;;4.00;;
41343;SDS011;27089;50.022;7.604;2024-03-17T02:03:03;6.77;;;4.50;;
41343;SDS011;27089;50.022;7.604;2024-03-17T02:05:31;5.63;;;4.00;;
41343;SDS011;27089;50.022;7.604;2024-03-17T02:07:58;5.93;;;3.53;;
41343;SDS011;27089;50.022;7.604;2024-03-17T02:10:26;4.53;;;3.50;;
41343;SDS011;27089;50.022;7.604;2024-03-17T02:12:52;5.03;;;3.43;;
41343;SDS011;27089;50.022;7.604;2024-03-17T02:15:20;4.43;;;3.23;;
41343;SDS011;27089;50.022;7.604;2024-03-17T02:17:46;5.07;;;3.43;;
41343;SDS011;27089;50.022;7.604;2024-03-17T02:20:13;5.47;;;3.60;;
41343;SDS011;27089;50.022;7.604;2024-03-17T02:22:40;5.37;;;3.17;;
41343;SDS011;27089;50.022;7.604;2024-03-17T02:25:07;6.20;;;3.50;;
41343;SDS011;27089;50.022;7.604;2024-03-17T02:27:34;5.13;;;3.50;;
41343;SDS011;27089;50.022;7.604;2024-03-17T02:30:01;6.00;;;3.77;;
41343;SDS011;27089;50.022;7.604;2024-03-17T02:32:27;5.70;;;4.00;;
41343;SDS011;27089;50.022;7.604;2024-03-17T02:34:54;4.73;;;3.90;;
41343;SDS011;27089;50.022;7.604;2024-03-17T02:37:20;7.13;;;4.33;;
41343;SDS011;27089;50.022;7.604;2024-03-17T02:39:48;4.50;;;3.50;;
41343;SDS011;27089;50.022;7.604;2024-03-17T02:42:14;4.27;;;3.40;;
41343;SDS011;27089;50.022;7.604;2024-03-17T02:44:41;5.50;;;3.90;;
41343;SDS011;27089;50.022;7.604;2024-03-17T02:47:08;3.97;;;3.30;;
41343;SDS011;27089;50.022;7.604;2024-03-17T02:49:35;3.63;;;3.13;;
41343;SDS011;27089;50.022;7.604;2024-03-17T02:52:04;5.87;;;3.33;;
41343;SDS011;27089;50.022;7.604;2024-03-17T02:54:34;4.67;;;3.20;;
41343;SDS011;27089;50.022;7.604;2024-03-17T02:57:03;6.03;;;3.43;;
41343;SDS011;27089;50.022;7.604;2024-03-17T02:59:30;3.70;;;2.80;;
41343;SDS011;27089;50.022;7.604;2024-03-17T03:01:57;4.87;;;3.60;;
41343;SDS011;27089;50.022;7.604;2024-03-17T03:04:25;4.77;;;3.50;;
41343;SDS011;27089;50.022;7.604;2024-03-17T03:06:53;4.03;;;2.73;;
41343;SDS011;27089;50.022;7.604;2024-03-17T03:09:20;3.30;;;2.67;;
41343;SDS011;27089;50.022;7.604;2024-03-17T03:11:51;3.93;;;2.50;;
41343;SDS011;27089;50.022;7.604;2024-03-17T03:14:20;4.83;;;2.93;;
41343;SDS011;27089;50.022;7.604;2024-03-17T03:16:47;4.87;;;3.57;;
41343;SDS011;27089;50.022;7.604;2024-03-17T03:19:15;4.87;;;3.53;;
41343;SDS011;27089;50.022;7.604;2024-03-17T03:21:44;6.83;;;4.37;;
41343;SDS011;27089;50.022;7.604;2024-03-17T03:24:11;5.40;;;3.70;;
41343;SDS011;27089;50.022;7.604;2024-03-17T03:26:39;5.37;;;3.73;;
41343;SDS011;27089;50.022;7.604;2024-03-17T03:29:06;3.90;;;2.93;;
41343;SDS011;27089;50.022;7.604;2024-03-17T03:31:36;4.47;;;2.80;;
41343;SDS011;27089;50.022;7.604;2024-03-17T03:34:04;5.40;;;4.00;;
41343;SDS011;27089;50.022;7.604;2024-03-17T03:36:33;4.97;;;3.70;;
41343;SDS011;27089;50.022;7.604;2024-03-17T03:39:00;5.23;;;3.83;;
41343;SDS011;27089;50.022;7.604;2024-03-17T03:41:29;7.57;;;3.77;;
41343;SDS011;27089;50.022;7.604;2024-03-17T03:43:57;5.63;;;3.20;;
41343;SDS011;27089;50.022;7.604;2024-03-17T03:46:23;4.70;;;3.40;;
41343;SDS011;27089;50.022;7.604;2024-03-17T03:48:52;4.97;;;3.50;;
41343;SDS011;27089;50.022;7.604;2024-03-17T03:51:19;5.90;;;3.93;;
41343;SDS011;27089;50.022;7.604;2024-03-17T03:53:46;5.57;;;4.07;;
41343;SDS011;27089;50.022;7.604;2024-03-17T03:56:13;7.50;;;3.87;;
41343;SDS011;27089;50.022;7.604;2024-03-17T03:58:41;5.63;;;3.83;;
41343;SDS011;27089;50.022;7.604;2024-03-17T04:01:11;6.20;;;3.57;;
41343;SDS011;27089;50.022;7.604;2024-03-17T04:03:40;6.43;;;4.23;;
41343;SDS011;27089;50.022;7.604;2024-03-17T04:06:09;6.10;;;3.90;;
41343;SDS011;27089;50.022;7.604;2024-03-17T04:08:38;4.77;;;3.43;;
41343;SDS011;27089;50.022;7.604;2024-03-17T04:11:06;6.87;;;3.63;;
41343;SDS011;27089;50.022;7.604;2024-03-17T04:13:33;4.90;;;3.10;;
41343;SDS011;27089;50.022;7.604;2024-03-17T04:16:03;5.80;;;3.60;;
41343;SDS011;27089;50.022;7.604;2024-03-17T04:18:31;6.47;;;3.57;;
41343;SDS011;27089;50.022;7.604;2024-03-17T04:21:01;6.60;;;3.40;;
41343;SDS011;27089;50.022;7.604;2024-03-17T04:23:30;5.27;;;3.33;;
41343;SDS011;27089;50.022;7.604;2024-03-17T04:25:58;6.13;;;2.97;;
41343;SDS011;27089;50.022;7.604;2024-03-17T04:28:26;5.53;;;3.00;;
41343;SDS011;27089;50.022;7.604;2024-03-17T04:30:53;4.17;;;3.20;;
41343;SDS011;27089;50.022;7.604;2024-03-17T04:33:29;4.70;;;3.47;;
41343;SDS011;27089;50.022;7.604;2024-03-17T04:35:56;6.80;;;4.00;;
41343;SDS011;27089;50.022;7.604;2024-03-17T04:38:23;5.97;;;3.30;;
41343;SDS011;27089;50.022;7.604;2024-03-17T04:40:52;5.97;;;3.03;;
41343;SDS011;27089;50.022;7.604;2024-03-17T04:43:24;4.70;;;3.03;;
41343;SDS011;27089;50.022;7.604;2024-03-17T04:45:58;5.80;;;2.97;;
41343;SDS011;27089;50.022;7.604;2024-03-17T04:48:27;6.57;;;3.50;;
41343;SDS011;27089;50.022;7.604;2024-03-17T04:50:54;5.43;;;3.30;;
41343;SDS011;27089;50.022;7.604;2024-03-17T04:53:21;9.40;;;4.13;;
41343;SDS011;27089;50.022;7.604;2024-03-17T04:55:48;6.50;;;3.83;;
41343;SDS011;27089;50.022;7.604;2024-03-17T04:58:24;6.10;;;3.80;;
41343;SDS011;27089;50.022;7.604;2024-03-17T05:00:51;5.50;;;3.80;;
41343;SDS011;27089;50.022;7.604;2024-03-17T05:03:18;6.93;;;4.27;;
41343;SDS011;27089;50.022;7.604;2024-03-17T05:05:45;7.40;;;4.67;;
41343;SDS011;27089;50.022;7.604;2024-03-17T05:08:12;8.43;;;4.23;;
41343;SDS011;27089;50.022;7.604;2024-03-17T05:10:39;6.13;;;3.83;;
41343;SDS011;27089;50.022;7.604;2024-03-17T05:13:06;6.33;;;4.10;;
41343;SDS011;27089;50.022;7.604;2024-03-17T05:15:37;6.13;;;3.63;;
41343;SDS011;27089;50.022;7.604;2024-03-17T05:18:04;6.53;;;3.63;;
41343;SDS011;27089;50.022;7.604;2024-03-17T05:20:31;5.77;;;3.93;;
41343;SDS011;27089;50.022;7.604;2024-03-17T05:22:58;6.27;;;3.70;;
41343;SDS011;27089;50.022;7.604;2024-03-17T05:25:25;5.63;;;3.47;;
41343;SDS011;27089;50.022;7.604;2024-03-17T05:27:52;7.83;;;3.97;;
41343;SDS011;27089;50.022;7.604;2024-03-17T05:30:19;6.57;;;4.40;;
41343;SDS011;27089;50.022;7.604;2024-03-17T05:32:46;6.63;;;4.07;;
41343;SDS011;27089;50.022;7.604;2024-03-17T05:35:14;7.03;;;3.87;;
41343;SDS011;27089;50.022;7.604;2024-03-17T05:37:41;7.17;;;3.80;;
41343;SDS011;27089;50.022;7.604;2024-03-17T05:40:09;6.00;;;3.80;;
41343;SDS011;27089;50.022;7.604;2024-03-17T05:42:38;5.13;;;4.03;;
41343;SDS011;27089;50.022;7.604;2024-03-17T05:45:08;5.97;;;3.40;;
41343;SDS011;27089;50.022;7.604;2024-03-17T05:47:36;6.10;;;3.60;;
41343;SDS011;27089;50.022;7.604;2024-03-17T05:50:05;7.50;;;4.10;;
41343;SDS011;27089;50.022;7.604;2024-03-17T05:52:34;13.10;;;7.93;;
41343;SDS011;27089;50.022;7.604;2024-03-17T05:55:01;11.50;;;5.30;;
41343;SDS011;27089;50.022;7.604;2024-03-17T05:57:28;7.73;;;5.33;;
41343;SDS011;27089;50.022;7.604;2024-03-17T05:59:56;8.87;;;5.20;;
41343;SDS011;27089;50.022;7.604;2024-03-17T06:02:23;9.93;;;5.93;;
41343;SDS011;27089;50.022;7.604;2024-03-17T06:04:50;6.83;;;5.00;;
41343;SDS011;27089;50.022;7.604;2024-03-17T06:07:18;7.70;;;4.83;;
41343;SDS011;27089;50.022;7.604;2024-03-17T06:09:45;10.80;;;5.23;;
41343;SDS011;27089;50.022;7.604;2024-03-17T06:12:12;7.93;;;5.27;;
41343;SDS011;27089;50.022;7.604;2024-03-17T06:14:39;7.87;;;4.50;;
41343;SDS011;27089;50.022;7.604;2024-03-17T06:17:06;7.13;;;4.57;;
41343;SDS011;27089;50.022;7.604;2024-03-17T06:19:34;4.97;;;3.50;;
41343;SDS011;27089;50.022;7.604;2024-03-17T06:22:01;4.83;;;3.27;;
41343;SDS011;27089;50.022;7.604;2024-03-17T06:24:29;8.63;;;3.37;;
41343;SDS011;27089;50.022;7.604;2024-03-17T06:26:56;5.33;;;2.97;;
41343;SDS011;27089;50.022;7.604;2024-03-17T06:29:23;4.57;;;2.87;;
41343;SDS011;27089;50.022;7.604;2024-03-17T06:31:50;3.73;;;2.43;;
41343;SDS011;27089;50.022;7.604;2024-03-17T06:34:17;5.20;;;2.20;;
41343;SDS011;27089;50.022;7.604;2024-03-17T06:36:44;2.83;;;2.20;;
41343;SDS011;27089;50.022;7.604;2024-03-17T06:39:13;2.97;;;2.40;;
41343;SDS011;27089;50.022;7.604;2024-03-17T06:41:43;3.47;;;2.73;;
41343;SDS011;27089;50.022;7.604;2024-03-17T06:44:09;4.10;;;2.67;;
41343;SDS011;27089;50.022;7.604;2024-03-17T06:46:36;4.87;;;3.20;;
41343;SDS011;27089;50.022;7.604;2024-03-17T06:49:03;3.40;;;2.73;;
41343;SDS011;27089;50.022;7.604;2024-03-17T06:51:30;3.90;;;2.27;;
41343;SDS011;27089;50.022;7.604;2024-03-17T06:53:58;2.80;;;1.90;;
41343;SDS011;27089;50.022;7.604;2024-03-17T06:56:25;2.70;;;2.30;;
41343;SDS011;27089;50.022;7.604;2024-03-17T06:58:53;4.33;;;2.03;;
41343;SDS011;27089;50.022;7.604;2024-03-17T07:01:20;3.40;;;1.67;;
41343;SDS011;27089;50.022;7.604;2024-03-17T07:03:47;3.87;;;2.23;;
41343;SDS011;27089;50.022;7.604;2024-03-17T07:06:14;3.70;;;2.55;;
41343;SDS011;27089;50.022;7.604;2024-03-17T07:08:41;2.53;;;2.33;;
41343;SDS011;27089;50.022;7.604;2024-03-17T07:11:08;3.47;;;2.67;;
41343;SDS011;27089;50.022;7.604;2024-03-17T07:13:35;4.80;;;2.40;;
41343;SDS011;27089;50.022;7.604;2024-03-17T07:16:05;5.20;;;3.43;;
41343;SDS011;27089;50.022;7.604;2024-03-17T07:18:33;4.33;;;3.27;;
41343;SDS011;27089;50.022;7.604;2024-03-17T07:21:00;4.60;;;3.30;;
41343;SDS011;27089;50.022;7.604;2024-03-17T07:23:29;5.63;;;4.85;;
41343;SDS011;27089;50.022;7.604;2024-03-17T07:25:57;3.25;;;2.55;;
41343;SDS011;27089;50.022;7.604;2024-03-17T07:28:26;4.60;;;3.13;;
41343;SDS011;27089;50.022;7.604;2024-03-17T07:30:54;4.40;;;3.25;;
41343;SDS011;27089;50.022;7.604;2024-03-17T07:33:23;4.57;;;3.70;;
41343;SDS011;27089;50.022;7.604;2024-03-17T07:35:51;4.97;;;4.40;;
41343;SDS011;27089;50.022;7.604;2024-03-17T07:38:20;6.70;;;4.57;;
41343;SDS011;27089;50.022;7.604;2024-03-17T07:40:55;4.40;;;3.45;;
41343;SDS011;27089;50.022;7.604;2024-03-17T07:43:23;5.00;;;3.83;;
41343;SDS011;27089;50.022;7.604;2024-03-17T07:45:57;6.00;;;4.10;;
41343;SDS011;27089;50.022;7.604;2024-03-17T07:48:26;4.80;;;4.13;;
41343;SDS011;27089;50.022;7.604;2024-03-17T07:50:54;5.40;;;4.07;;
41343;SDS011;27089;50.022;7.604;2024-03-17T07:53:21;5.20;;;4.00;;
41343;SDS011;27089;50.022;7.604;2024-03-17T07:55:56;4.18;;;3.28;;
41343;SDS011;27089;50.022;7.604;2024-03-17T07:58:24;3.88;;;3.28;;
41343;SDS011;27089;50.022;7.604;2024-03-17T08:00:52;3.83;;;3.40;;
41343;SDS011;27089;50.022;7.604;2024-03-17T08:03:19;5.40;;;4.82;;
41343;SDS011;27089;50.022;7.604;2024-03-17T08:05:50;4.72;;;4.15;;
41343;SDS011;27089;50.022;7.604;2024-03-17T08:08:20;6.13;;;4.18;;
41343;SDS011;27089;50.022;7.604;2024-03-17T08:10:47;7.43;;;5.63;;
41343;SDS011;27089;50.022;7.604;2024-03-17T08:13:15;8.23;;;7.00;;
41343;SDS011;27089;50.022;7.604;2024-03-17T08:15:42;6.73;;;5.07;;
41343;SDS011;27089;50.022;7.604;2024-03-17T08:18:09;6.90;;;5.07;;
41343;SDS011;27089;50.022;7.604;2024-03-17T08:20:36;5.90;;;5.03;;
41343;SDS011;27089;50.022;7.604;2024-03-17T08:23:06;6.47;;;5.00;;
41343;SDS011;27089;50.022;7.604;2024-03-17T08:25:33;6.03;;;4.83;;
41343;SDS011;27089;50.022;7.604;2024-03-17T08:28:01;5.97;;;4.50;;
41343;SDS011;27089;50.022;7.604;2024-03-17T08:30:28;13.30;;;8.77;;
41343;SDS011;27089;50.022;7.604;2024-03-17T08:32:56;9.50;;;6.60;;
41343;SDS011;27089;50.022;7.604;2024-03-17T08:35:23;10.53;;;8.17;;
41343;SDS011;27089;50.022;7.604;2024-03-17T08:37:51;8.33;;;6.50;;
41343;SDS011;27089;50.022;7.604;2024-03-17T08:40:20;7.83;;;5.97;;
41343;SDS011;27089;50.022;7.604;2024-03-17T08:42:47;8.70;;;5.43;;
41343;SDS011;27089;50.022;7.604;2024-03-17T08:45:15;6.87;;;5.13;;
41343;SDS011;27089;50.022;7.604;2024-03-17T08:47:42;7.27;;;4.80;;
41343;SDS011;27089;50.022;7.604;2024-03-17T08:50:09;8.47;;;6.40;;
41343;SDS011;27089;50.022;7.604;2024-03-17T08:52:37;7.45;;;6.20;;
41343;SDS011;27089;50.022;7.604;2024-03-17T08:55:05;5.85;;;4.93;;
41343;SDS011;27089;50.022;7.604;2024-03-17T08:57:40;7.97;;;4.82;;
41343;SDS011;27089;50.022;7.604;2024-03-17T09:00:08;6.38;;;4.22;;
41343;SDS011;27089;50.022;7.604;2024-03-17T09:02:36;5.53;;;4.03;;
41343;SDS011;27089;50.022;7.604;2024-03-17T09:05:03;5.25;;;3.88;;
41343;SDS011;27089;50.022;7.604;2024-03-17T09:07:30;5.65;;;4.35;;
41343;SDS011;27089;50.022;7.604;2024-03-17T09:09:57;5.35;;;4.10;;
41343;SDS011;27089;50.022;7.604;2024-03-17T09:12:24;5.47;;;4.13;;
41343;SDS011;27089;50.022;7.604;2024-03-17T09:14:54;6.72;;;4.03;;
41343;SDS011;27089;50.022;7.604;2024-03-17T09:17:21;5.43;;;3.95;;
41343;SDS011;27089;50.022;7.604;2024-03-17T09:19:48;5.90;;;3.63;;
41343;SDS011;27089;50.022;7.604;2024-03-17T09:22:15;5.75;;;3.90;;
41343;SDS011;27089;50.022;7.604;2024-03-17T09:24:42;6.03;;;4.22;;
41343;SDS011;27089;50.022;7.604;2024-03-17T09:27:09;4.90;;;3.90;;
41343;SDS011;27089;50.022;7.604;2024-03-17T09:29:36;4.63;;;3.33;;
41343;SDS011;27089;50.022;7.604;2024-03-17T09:32:04;5.03;;;3.40;;
41343;SDS011;27089;50.022;7.604;2024-03-17T09:34:33;5.75;;;3.97;;
41343;SDS011;27089;50.022;7.604;2024-03-17T09:37:00;6.07;;;3.50;;
41343;SDS011;27089;50.022;7.604;2024-03-17T09:39:27;5.72;;;3.70;;
41343;SDS011;27089;50.022;7.604;2024-03-17T09:41:54;5.85;;;3.95;;
41343;SDS011;27089;50.022;7.604;2024-03-17T09:44:21;5.32;;;4.30;;
41343;SDS011;27089;50.022;7.604;2024-03-17T09:46:49;5.53;;;3.42;;
41343;SDS011;27089;50.022;7.604;2024-03-17T09:49:18;5.20;;;3.90;;
41343;SDS011;27089;50.022;7.604;2024-03-17T09:51:45;5.72;;;3.65;;
41343;SDS011;27089;50.022;7.604;2024-03-17T09:54:16;6.75;;;4.32;;
41343;SDS011;27089;50.022;7.604;2024-03-17T09:56:45;4.82;;;3.97;;
41343;SDS011;27089;50.022;7.604;2024-03-17T09:59:12;5.28;;;3.90;;
41343;SDS011;27089;50.022;7.604;2024-03-17T10:01:39;5.85;;;4.00;;
41343;SDS011;27089;50.022;7.604;2024-03-17T10:04:07;6.15;;;4.15;;
41343;SDS011;27089;50.022;7.604;2024-03-17T10:06:44;4.57;;;3.75;;
41343;SDS011;27089;50.022;7.604;2024-03-17T10:09:15;4.82;;;3.90;;
41343;SDS011;27089;50.022;7.604;2024-03-17T10:11:46;7.22;;;3.63;;
41343;SDS011;27089;50.022;7.604;2024-03-17T10:14:16;5.00;;;3.90;;
41343;SDS011;27089;50.022;7.604;2024-03-17T10:16:44;5.35;;;4.25;;
41343;SDS011;27089;50.022;7.604;2024-03-17T10:19:11;5.05;;;3.70;;
41343;SDS011;27089;50.022;7.604;2024-03-17T10:21:41;5.55;;;3.92;;
41343;SDS011;27089;50.022;7.604;2024-03-17T10:24:09;4.22;;;3.47;;
41343;SDS011;27089;50.022;7.604;2024-03-17T10:26:37;4.72;;;3.85;;
41343;SDS011;27089;50.022;7.604;2024-03-17T10:29:16;5.15;;;3.75;;
41343;SDS011;27089;50.022;7.604;2024-03-17T10:31:47;5.95;;;4.18;;
41343;SDS011;27089;50.022;7.604;2024-03-17T10:34:15;6.57;;;4.30;;
41343;SDS011;27089;50.022;7.604;2024-03-17T10:36:45;5.78;;;4.53;;
41343;SDS011;27089;50.022;7.604;2024-03-17T10:39:26;6.88;;;4.68;;
41343;SDS011;27089;50.022;7.604;2024-03-17T10:41:58;7.55;;;5.03;;
41343;SDS011;27089;50.022;7.604;2024-03-17T10:44:26;6.50;;;4.43;;
41343;SDS011;27089;50.022;7.604;2024-03-17T10:46:54;6.82;;;4.65;;
41343;SDS011;27089;50.022;7.604;2024-03-17T10:49:23;4.63;;;4.10;;
41343;SDS011;27089;50.022;7.604;2024-03-17T10:51:58;6.20;;;4.78;;
41343;SDS011;27089;50.022;7.604;2024-03-17T10:54:27;6.05;;;4.72;;
41343;SDS011;27089;50.022;7.604;2024-03-17T10:56:55;5.70;;;4.47;;
41343;SDS011;27089;50.022;7.604;2024-03-17T10:59:25;5.28;;;4.78;;
41343;SDS011;27089;50.022;7.604;2024-03-17T11:02:01;5.65;;;4.88;;
41343;SDS011;27089;50.022;7.604;2024-03-17T11:04:29;5.88;;;4.50;;
41343;SDS011;27089;50.022;7.604;2024-03-17T11:06:58;5.75;;;4.63;;
41343;SDS011;27089;50.022;7.604;2024-03-17T11:09:25;6.93;;;4.78;;
41343;SDS011;27089;50.022;7.604;2024-03-17T11:11:53;6.60;;;4.38;;
41343;SDS011;27089;50.022;7.604;2024-03-17T11:14:20;6.68;;;4.40;;
41343;SDS011;27089;50.022;7.604;2024-03-17T11:16:48;5.30;;;4.07;;
41343;SDS011;27089;50.022;7.604;2024-03-17T11:19:15;5.28;;;4.03;;
41343;SDS011;27089;50.022;7.604;2024-03-17T11:21:43;6.82;;;4.30;;
41343;SDS011;27089;50.022;7.604;2024-03-17T11:24:21;6.25;;;4.07;;
41343;SDS011;27089;50.022;7.604;2024-03-17T11:26:50;5.63;;;4.20;;
41343;SDS011;27089;50.022;7.604;2024-03-17T11:29:27;5.32;;;4.25;;
41343;SDS011;27089;50.022;7.604;2024-03-17T11:31:55;6.53;;;4.40;;
41343;SDS011;27089;50.022;7.604;2024-03-17T11:34:29;6.80;;;4.60;;
41343;SDS011;27089;50.022;7.604;2024-03-17T11:36:56;7.32;;;4.65;;
41343;SDS011;27089;50.022;7.604;2024-03-17T11:42:15;6.40;;;4.15;;
41343;SDS011;27089;50.022;7.604;2024-03-17T11:44:42;6.28;;;4.18;;
41343;SDS011;27089;50.022;7.604;2024-03-17T11:47:10;7.22;;;4.30;;
41343;SDS011;27089;50.022;7.604;2024-03-17T11:49:37;5.65;;;4.28;;
41343;SDS011;27089;50.022;7.604;2024-03-17T11:52:07;5.57;;;4.35;;
41343;SDS011;27089;50.022;7.604;2024-03-17T11:54:37;5.78;;;3.80;;
41343;SDS011;27089;50.022;7.604;2024-03-17T11:57:06;5.47;;;3.80;;
41343;SDS011;27089;50.022;7.604;2024-03-17T11:59:34;6.28;;;4.18;;
41343;SDS011;27089;50.022;7.604;2024-03-17T12:02:02;7.10;;;4.10;;
41343;SDS011;27089;50.022;7.604;2024-03-17T12:04:38;6.30;;;4.57;;
41343;SDS011;27089;50.022;7.604;2024-03-17T12:07:07;4.13;;;3.73;;
41343;SDS011;27089;50.022;7.604;2024-03-17T12:09:38;4.55;;;3.58;;
41343;SDS011;27089;50.022;7.604;2024-03-17T12:12:09;7.68;;;4.25;;
41343;SDS011;27089;50.022;7.604;2024-03-17T12:14:37;7.67;;;4.80;;
41343;SDS011;27089;50.022;7.604;2024-03-17T12:17:04;6.27;;;4.70;;
41343;SDS011;27089;50.022;7.604;2024-03-17T12:19:33;5.13;;;4.27;;
41343;SDS011;27089;50.022;7.604;2024-03-17T12:22:00;5.67;;;4.30;;
41343;SDS011;27089;50.022;7.604;2024-03-17T12:24:29;6.63;;;4.53;;
41343;SDS011;27089;50.022;7.604;2024-03-17T12:26:57;11.23;;;7.22;;
41343;SDS011;27089;50.022;7.604;2024-03-17T12:29:27;12.27;;;6.85;;
41343;SDS011;27089;50.022;7.604;2024-03-17T12:31:55;5.53;;;4.70;;
41343;SDS011;27089;50.022;7.604;2024-03-17T12:34:25;7.97;;;6.97;;
41343;SDS011;27089;50.022;7.604;2024-03-17T12:36:52;6.87;;;5.20;;
41343;SDS011;27089;50.022;7.604;2024-03-17T12:39:21;7.68;;;4.65;;
41343;SDS011;27089;50.022;7.604;2024-03-17T12:42:03;5.22;;;4.05;;
41343;SDS011;27089;50.022;7.604;2024-03-17T12:44:33;5.82;;;4.32;;
41343;SDS011;27089;50.022;7.604;2024-03-17T12:47:00;8.80;;;5.10;;
41343;SDS011;27089;50.022;7.604;2024-03-17T12:49:28;5.00;;;4.50;;
41343;SDS011;27089;50.022;7.604;2024-03-17T12:51:55;7.03;;;4.85;;
41343;SDS011;27089;50.022;7.604;2024-03-17T12:54:23;11.25;;;7.18;;
41343;SDS011;27089;50.022;7.604;2024-03-17T12:56:50;6.05;;;4.72;;
41343;SDS011;27089;50.022;7.604;2024-03-17T12:59:40;6.13;;;4.53;;
41343;SDS011;27089;50.022;7.604;2024-03-17T13:02:25;5.70;;;4.77;;
41343;SDS011;27089;50.022;7.604;2024-03-17T13:05:06;5.60;;;4.20;;
41343;SDS011;27089;50.022;7.604;2024-03-17T13:07:34;5.73;;;4.50;;
41343;SDS011;27089;50.022;7.604;2024-03-17T13:10:02;6.97;;;4.35;;
41343;SDS011;27089;50.022;7.604;2024-03-17T13:12:29;5.13;;;4.13;;
41343;SDS011;27089;50.022;7.604;2024-03-17T13:14:57;7.22;;;5.10;;
41343;SDS011;27089;50.022;7.604;2024-03-17T13:17:24;5.40;;;4.30;;
41343;SDS011;27089;50.022;7.604;2024-03-17T13:19:54;5.20;;;3.83;;
41343;SDS011;27089;50.022;7.604;2024-03-17T13:22:21;5.40;;;4.57;;
41343;SDS011;27089;50.022;7.604;2024-03-17T13:24:48;4.73;;;4.07;;
41343;SDS011;27089;50.022;7.604;2024-03-17T13:27:15;6.47;;;4.10;;
41343;SDS011;27089;50.022;7.604;2024-03-17T13:29:42;5.90;;;4.37;;
41343;SDS011;27089;50.022;7.604;2024-03-17T13:32:14;6.60;;;4.53;;
41343;SDS011;27089;50.022;7.604;2024-03-17T13:34:42;7.67;;;4.53;;
41343;SDS011;27089;50.022;7.604;2024-03-17T13:37:09;6.00;;;4.07;;
41343;SDS011;27089;50.022;7.604;2024-03-17T13:39:36;5.50;;;4.27;;
41343;SDS011;27089;50.022;7.604;2024-03-17T13:42:03;7.10;;;3.83;;
41343;SDS011;27089;50.022;7.604;2024-03-17T13:44:31;5.47;;;4.00;;
41343;SDS011;27089;50.022;7.604;2024-03-17T13:46:58;6.67;;;4.30;;
41343;SDS011;27089;50.022;7.604;2024-03-17T13:49:29;5.97;;;4.40;;
41343;SDS011;27089;50.022;7.604;2024-03-17T13:51:56;5.40;;;4.00;;
41343;SDS011;27089;50.022;7.604;2024-03-17T13:54:23;5.20;;;4.10;;
41343;SDS011;27089;50.022;7.604;2024-03-17T13:56:50;5.20;;;3.97;;
41343;SDS011;27089;50.022;7.604;2024-03-17T13:59:17;6.10;;;3.97;;
41343;SDS011;27089;50.022;7.604;2024-03-17T14:01:44;5.50;;;3.80;;
41343;SDS011;27089;50.022;7.604;2024-03-17T14:04:14;5.50;;;3.77;;
41343;SDS011;27089;50.022;7.604;2024-03-17T14:06:44;6.67;;;4.10;;
41343;SDS011;27089;50.022;7.604;2024-03-17T14:09:14;5.37;;;3.33;;
41343;SDS011;27089;50.022;7.604;2024-03-17T14:11:43;7.37;;;3.87;;
41343;SDS011;27089;50.022;7.604;2024-03-17T14:14:11;4.93;;;3.83;;
41343;SDS011;27089;50.022;7.604;2024-03-17T14:16:38;6.03;;;3.45;;
41343;SDS011;27089;50.022;7.604;2024-03-17T14:19:07;5.00;;;3.43;;
41343;SDS011;27089;50.022;7.604;2024-03-17T14:21:34;4.13;;;3.30;;
41343;SDS011;27089;50.022;7.604;2024-03-17T14:24:03;5.10;;;3.30;;
41343;SDS011;27089;50.022;7.604;2024-03-17T14:26:32;4.35;;;3.50;;
41343;SDS011;27089;50.022;7.604;2024-03-17T14:29:00;4.87;;;3.60;;
41343;SDS011;27089;50.022;7.604;2024-03-17T14:31:29;4.77;;;3.60;;
41343;SDS011;27089;50.022;7.604;2024-03-17T14:33:58;4.97;;;3.50;;
41343;SDS011;27089;50.022;7.604;2024-03-17T14:36:25;5.25;;;3.28;;
41343;SDS011;27089;50.022;7.604;2024-03-17T14:38:54;4.75;;;3.45;;
41343;SDS011;27089;50.022;7.604;2024-03-17T14:41:23;4.30;;;3.10;;
41343;SDS011;27089;50.022;7.604;2024-03-17T14:43:50;5.70;;;3.53;;
41343;SDS011;27089;50.022;7.604;2024-03-17T14:46:17;5.05;;;3.22;;
41343;SDS011;27089;50.022;7.604;2024-03-17T14:48:44;4.95;;;3.45;;
41343;SDS011;27089;50.022;7.604;2024-03-17T14:51:11;4.83;;;3.33;;
41343;SDS011;27089;50.022;7.604;2024-03-17T14:53:38;4.00;;;3.23;;
41343;SDS011;27089;50.022;7.604;2024-03-17T14:56:13;4.87;;;3.30;;